createdAt,value
2022-08-11T00:01:21.145Z,78.75
2022-08-11T00:03:53.851Z,78.79
2022-08-11T00:06:29.982Z,78.56
2022-08-11T00:08:58.255Z,78.40
2022-08-11T00:11:36.681Z,78.44
2022-08-11T00:14:13.055Z,78.64
2022-08-11T00:16:42.106Z,78.81
2022-08-11T00:19:10.951Z,79.86
2022-08-11T00:22:04.661Z,79.92
2022-08-11T00:24:38.682Z,80.33
2022-08-11T00:27:20.599Z,80.28
2022-08-11T00:29:55.052Z,80.28
2022-08-11T00:32:22.497Z,80.74
2022-08-11T00:34:50.875Z,80.70
2022-08-11T00:37:21.623Z,81.18
2022-08-11T00:39:54.239Z,81.41
2022-08-11T00:42:24.226Z,81.62
2022-08-11T00:45:09.559Z,81.34
2022-08-11T00:47:42.100Z,81.64
2022-08-11T00:50:27.816Z,81.25
2022-08-11T00:53:28.754Z,81.30
2022-08-11T00:56:14.243Z,81.20
2022-08-11T00:59:35.184Z,81.18
2022-08-11T01:02:05.819Z,80.94
2022-08-11T01:05:14.181Z,81.67
2022-08-11T01:08:03.653Z,82.04
2022-08-11T01:10:58.439Z,81.97
2022-08-11T01:13:43.043Z,81.85
2022-08-11T01:16:31.749Z,82.25
2022-08-11T01:19:17.214Z,82.38
2022-08-11T01:21:56.714Z,82.78
2022-08-11T01:24:29.791Z,83.06
2022-08-11T01:27:34.640Z,82.88
2022-08-11T01:30:30.591Z,82.66
2022-08-11T01:33:23.834Z,82.93
2022-08-11T01:36:45.285Z,83.11
2022-08-11T01:39:34.952Z,82.99
2022-08-11T01:42:23.588Z,83.11
2022-08-11T01:45:27.817Z,83.22
2022-08-11T01:48:22.362Z,82.86
2022-08-11T01:51:08.646Z,83.39
2022-08-11T01:53:57.121Z,83.63
2022-08-11T01:56:34.267Z,83.43
2022-08-11T01:59:22.794Z,83.48
2022-08-11T02:01:50.460Z,83.73
2022-08-11T02:04:42.287Z,83.66
2022-08-11T02:07:38.700Z,83.67
2022-08-11T02:10:41.138Z,83.74
2022-08-11T02:13:36.498Z,84.08
2022-08-11T02:16:21.467Z,83.82
2022-08-11T02:19:14.164Z,83.93
2022-08-11T02:22:13.950Z,83.98
2022-08-11T02:24:49.471Z,84.19
2022-08-11T02:27:23.358Z,84.00
2022-08-11T02:30:07.392Z,84.18
2022-08-11T02:33:09.456Z,84.16
2022-08-11T02:35:55.838Z,84.28
2022-08-11T02:38:24.645Z,84.01
2022-08-11T02:41:28.653Z,84.13
2022-08-11T02:44:28.266Z,83.91
2022-08-11T02:47:22.907Z,84.17
2022-08-11T02:50:07.493Z,84.02
2022-08-11T02:52:59.649Z,84.30
2022-08-11T02:55:48.911Z,84.16
2022-08-11T02:58:35.516Z,84.33
2022-08-11T03:01:23.717Z,84.09
2022-08-11T03:04:18.173Z,84.21
2022-08-11T03:07:29.029Z,84.37
2022-08-11T03:10:22.638Z,84.26
2022-08-11T03:13:33.357Z,84.47
2022-08-11T03:16:32.106Z,84.36
2022-08-11T03:19:11.580Z,84.52
2022-08-11T03:22:03.044Z,84.71
2022-08-11T03:24:46.487Z,84.95
2022-08-11T03:27:22.100Z,85.04
2022-08-11T03:30:08.171Z,84.81
2022-08-11T03:33:17.152Z,84.86
2022-08-11T03:35:55.157Z,85.11
2022-08-11T03:38:30.527Z,84.73
2022-08-11T03:42:02.330Z,85.17
2022-08-11T03:44:55.795Z,85.10
2022-08-11T03:47:27.707Z,84.74
2022-08-11T03:50:03.758Z,84.81
2022-08-11T03:52:49.555Z,85.05
2022-08-11T03:55:34.751Z,85.22
2022-08-11T03:58:23.025Z,84.89
2022-08-11T04:01:20.579Z,85.16
2022-08-11T04:04:25.308Z,85.49
2022-08-11T04:06:57.641Z,85.37
2022-08-11T04:10:06.624Z,85.18
2022-08-11T04:13:01.137Z,85.37
2022-08-11T04:16:11.043Z,85.51
2022-08-11T04:19:11.185Z,85.57
2022-08-11T04:21:40.875Z,85.74
2022-08-11T04:24:49.770Z,86.05
2022-08-11T04:27:40.039Z,85.74
2022-08-11T04:30:35.015Z,85.79
2022-08-11T04:33:37.720Z,85.80
2022-08-11T04:36:44.542Z,85.85
2022-08-11T04:39:27.922Z,85.95
2022-08-11T04:42:50.382Z,86.14
2022-08-11T04:45:29.415Z,86.16
2022-08-11T04:48:36.301Z,85.92
2022-08-11T04:51:43.697Z,86.14
2022-08-11T04:54:50.717Z,86.12
2022-08-11T04:58:04.393Z,86.29
2022-08-11T05:00:59.997Z,86.30
2022-08-11T05:04:36.914Z,85.90
2022-08-11T05:07:09.511Z,85.88
2022-08-11T05:10:10.694Z,86.32
2022-08-11T05:12:55.363Z,86.20
2022-08-11T05:16:13.799Z,86.21
2022-08-11T05:19:09.473Z,86.16
2022-08-11T05:21:57.462Z,85.94
2022-08-11T05:24:44.669Z,86.24
2022-08-11T05:27:33.562Z,86.17
2022-08-11T05:30:28.154Z,86.63
2022-08-11T05:33:28.639Z,85.96
2022-08-11T05:36:24.724Z,86.05
2022-08-11T05:39:18.506Z,86.44
2022-08-11T05:42:04.961Z,86.64
2022-08-11T05:44:53.142Z,86.63
2022-08-11T05:47:44.178Z,86.45
2022-08-11T05:50:33.168Z,86.52
2022-08-11T05:53:21.407Z,86.43
2022-08-11T05:56:09.990Z,86.49
2022-08-11T05:58:42.698Z,86.80
2022-08-11T06:01:21.543Z,86.76
2022-08-11T06:04:10.886Z,86.40
2022-08-11T06:06:45.290Z,86.30
2022-08-11T06:09:14.442Z,85.85
2022-08-11T06:11:44.916Z,85.86
2022-08-11T06:14:15.598Z,85.68
2022-08-11T06:16:43.566Z,85.54
2022-08-11T06:19:10.691Z,84.94
2022-08-11T06:21:38.228Z,84.67
2022-08-11T06:24:15.355Z,84.41
2022-08-11T06:27:11.279Z,84.18
2022-08-11T06:29:55.382Z,83.71
2022-08-11T06:32:32.496Z,83.62
2022-08-11T06:35:18.148Z,83.47
2022-08-11T06:37:49.063Z,82.89
2022-08-11T06:40:35.675Z,82.56
2022-08-11T06:43:30.367Z,82.59
2022-08-11T06:46:03.909Z,82.56
2022-08-11T06:48:33.700Z,82.47
2022-08-11T06:51:12.920Z,82.84
2022-08-11T06:54:03.440Z,82.76
2022-08-11T06:57:28.495Z,83.02
2022-08-11T07:00:02.953Z,83.21
2022-08-11T07:03:12.660Z,83.52
2022-08-11T07:05:46.447Z,83.32
2022-08-11T07:08:56.300Z,83.27
2022-08-11T07:12:17.247Z,83.52
2022-08-11T07:15:09.981Z,83.65
2022-08-11T07:17:49.267Z,83.75
2022-08-11T07:20:41.290Z,84.06
2022-08-11T07:23:28.679Z,84.35
2022-08-11T07:26:18.162Z,84.16
2022-08-11T07:28:55.371Z,83.87
2022-08-11T07:31:31.427Z,84.03
2022-08-11T07:34:18.734Z,84.40
2022-08-11T07:36:58.643Z,84.73
2022-08-11T07:39:33.309Z,84.52
2022-08-11T07:42:06.263Z,85.17
2022-08-11T07:44:54.583Z,85.87
2022-08-11T07:47:41.414Z,86.38
2022-08-11T07:50:28.480Z,86.32
2022-08-11T07:52:57.815Z,86.81
2022-08-11T07:55:49.249Z,87.28
2022-08-11T07:58:40.342Z,88.22
2022-08-11T08:01:36.928Z,88.38
2022-08-11T08:04:24.243Z,89.28
2022-08-11T08:07:10.229Z,88.65
2022-08-11T08:09:56.660Z,88.67
2022-08-11T08:12:44.103Z,88.13
2022-08-11T08:15:31.469Z,88.16
2022-08-11T08:18:09.287Z,88.60
2022-08-11T08:20:52.476Z,88.29
2022-08-11T08:23:33.506Z,88.02
2022-08-11T08:26:04.519Z,88.72
2022-08-11T08:28:33.619Z,87.35
2022-08-11T08:31:00.755Z,86.62
2022-08-11T08:33:30.301Z,87.26
2022-08-11T08:36:12.685Z,87.11
2022-08-11T08:38:47.228Z,87.20
2022-08-11T08:41:19.388Z,87.14
2022-08-11T08:43:51.462Z,87.41
2022-08-11T08:46:25.654Z,87.91
2022-08-11T08:48:53.729Z,86.94
2022-08-11T08:51:58.549Z,86.22
2022-08-11T08:54:28.997Z,86.44
2022-08-11T08:56:57.399Z,87.33
2022-08-11T08:59:26.764Z,86.47
2022-08-11T09:02:13.953Z,85.94
2022-08-11T09:04:44.226Z,85.48
2022-08-11T09:07:13.370Z,84.62
2022-08-11T09:09:48.966Z,84.84
2022-08-11T09:12:38.355Z,84.28
2022-08-11T09:15:08.162Z,83.67
2022-08-11T09:17:44.913Z,83.89
2022-08-11T09:20:25.779Z,84.33
2022-08-11T09:24:07.100Z,84.16
2022-08-11T09:26:31.021Z,84.34
2022-08-11T09:28:59.551Z,84.46
2022-08-11T09:31:29.589Z,84.63
2022-08-11T09:33:56.506Z,83.89
2022-08-11T09:36:42.983Z,83.52
2022-08-11T09:39:31.389Z,83.81
2022-08-11T09:42:03.436Z,83.69
2022-08-11T09:44:50.006Z,83.78
2022-08-11T09:47:24.706Z,83.72
2022-08-11T09:50:02.213Z,82.65
2022-08-11T09:52:36.485Z,82.23
2022-08-11T09:55:06.291Z,81.89
2022-08-11T09:57:51.971Z,81.37
2022-08-11T10:00:18.807Z,81.58
2022-08-11T10:02:48.513Z,81.68
2022-08-11T10:05:36.851Z,81.46
2022-08-11T10:08:05.867Z,80.47
2022-08-11T10:10:37.533Z,80.09
2022-08-11T10:14:06.086Z,79.95
2022-08-11T10:16:15.328Z,80.58
2022-08-11T10:18:52.960Z,80.92
2022-08-11T10:21:40.647Z,79.72
2022-08-11T10:24:28.657Z,79.35
2022-08-11T10:27:00.613Z,78.93
2022-08-11T10:29:58.193Z,78.96
2022-08-11T10:32:57.706Z,79.24
2022-08-11T10:35:28.278Z,79.24
2022-08-11T10:38:06.159Z,79.77
2022-08-11T10:40:39.005Z,79.73
2022-08-11T10:43:13.214Z,79.35
2022-08-11T10:46:03.592Z,79.52
2022-08-11T10:48:36.400Z,79.31
2022-08-11T10:51:14.283Z,79.09
2022-08-11T10:54:12.344Z,79.20
2022-08-11T10:56:59.435Z,79.63
2022-08-11T10:59:28.576Z,79.73
2022-08-11T11:01:56.460Z,80.10
2022-08-11T11:04:29.184Z,80.47
2022-08-11T11:07:24.126Z,80.12
2022-08-11T11:09:56.096Z,80.32
2022-08-11T11:12:49.125Z,80.14
2022-08-11T11:15:37.194Z,80.14
2022-08-11T11:18:07.452Z,80.15
2022-08-11T11:20:47.188Z,79.18
2022-08-11T11:23:19.966Z,79.43
2022-08-11T11:26:06.710Z,79.77
2022-08-11T11:28:58.663Z,80.15
2022-08-11T11:31:48.475Z,79.51
2022-08-11T11:34:27.559Z,79.25
2022-08-11T11:36:56.865Z,79.04
2022-08-11T11:39:27.465Z,79.09
2022-08-11T11:41:57.041Z,79.73
2022-08-11T11:44:25.459Z,79.55
2022-08-11T11:46:53.419Z,79.84
2022-08-11T11:51:52.839Z,79.29
2022-08-11T11:54:26.665Z,79.99
2022-08-11T11:56:55.632Z,78.59
2022-08-11T11:59:44.342Z,78.90
2022-08-11T12:02:14.894Z,78.50
2022-08-11T12:04:44.466Z,78.85
2022-08-11T12:07:30.853Z,79.21
2022-08-11T12:09:59.267Z,78.77
2022-08-11T12:12:44.874Z,78.62
2022-08-11T12:15:12.529Z,79.24
2022-08-11T12:17:39.791Z,78.91
2022-08-11T12:20:32.146Z,79.09
2022-08-11T12:23:16.594Z,78.78
2022-08-11T12:26:27.360Z,79.27
2022-08-11T12:28:53.409Z,79.45
2022-08-11T12:31:22.121Z,79.92
2022-08-11T12:33:50.371Z,79.37
2022-08-11T12:36:20.416Z,79.54
2022-08-11T12:38:51.585Z,80.28
2022-08-11T12:41:40.459Z,80.11
2022-08-11T12:44:29.903Z,79.89
2022-08-11T12:47:02.178Z,80.12
2022-08-11T12:49:51.545Z,80.52
2022-08-11T12:52:26.348Z,80.60
2022-08-11T12:55:12.974Z,80.55
2022-08-11T12:58:05.673Z,80.69
2022-08-11T13:00:51.650Z,80.64
2022-08-11T13:03:39.195Z,80.69
2022-08-11T13:06:07.432Z,80.69
2022-08-11T13:08:37.874Z,80.73
2022-08-11T13:11:23.678Z,80.53
2022-08-11T13:13:57.427Z,80.70
2022-08-11T13:16:29.123Z,79.58
2022-08-11T13:19:01.073Z,79.73
2022-08-11T13:21:29.100Z,79.40
2022-08-11T13:23:59.404Z,78.75
2022-08-11T13:26:43.690Z,78.24
2022-08-11T13:29:28.630Z,78.16
2022-08-11T13:32:00.065Z,76.11
2022-08-11T13:34:31.242Z,74.76
2022-08-11T13:37:01.008Z,74.54
2022-08-11T13:39:31.004Z,73.65
2022-08-11T13:42:00.358Z,73.91
2022-08-11T13:44:29.921Z,74.11
2022-08-11T13:47:03.898Z,74.40
2022-08-11T13:49:32.476Z,74.56
2022-08-11T13:52:00.041Z,74.53
2022-08-11T13:54:30.438Z,74.44
2022-08-11T13:57:01.856Z,74.04
2022-08-11T13:59:30.879Z,73.55
2022-08-11T14:02:28.338Z,74.09
2022-08-11T14:05:10.115Z,73.58
2022-08-11T14:07:46.473Z,73.04
2022-08-11T14:10:16.402Z,72.14
2022-08-11T14:13:06.315Z,72.08
2022-08-11T14:15:35.494Z,72.00
2022-08-11T14:18:17.175Z,71.74
2022-08-11T14:21:05.633Z,72.06
2022-08-11T14:23:59.381Z,72.22
2022-08-11T14:26:31.427Z,72.52
2022-08-11T14:29:11.179Z,72.34
2022-08-11T14:34:10.561Z,72.15
2022-08-11T14:36:40.757Z,72.39
2022-08-11T14:39:13.771Z,72.13
2022-08-11T14:42:10.276Z,71.30
2022-08-11T14:45:03.351Z,71.23
2022-08-11T14:47:34.915Z,71.46
2022-08-11T14:50:11.258Z,71.56
2022-08-11T14:53:00.496Z,71.96
2022-08-11T14:55:48.631Z,71.98
2022-08-11T14:58:18.507Z,71.56
2022-08-11T15:00:46.331Z,72.11
2022-08-11T15:03:15.348Z,71.85
2022-08-11T15:05:56.319Z,71.89
2022-08-11T15:08:47.165Z,72.32
2022-08-11T15:11:35.045Z,71.95
2022-08-11T15:14:05.634Z,72.43
2022-08-11T15:16:51.955Z,72.25
2022-08-11T15:19:23.587Z,72.58
2022-08-11T15:22:09.260Z,72.96
2022-08-11T15:24:37.450Z,72.95
2022-08-11T15:27:35.717Z,73.03
2022-08-11T15:30:32.940Z,73.06
2022-08-11T15:33:23.303Z,73.11
2022-08-11T15:36:09.682Z,73.62
2022-08-11T15:38:42.726Z,73.85
2022-08-11T15:41:32.367Z,74.00
2022-08-11T15:44:26.848Z,74.32
2022-08-11T15:47:08.321Z,74.52
2022-08-11T15:50:10.673Z,74.91
2022-08-11T15:52:31.709Z,74.84
2022-08-11T15:55:02.305Z,74.90
2022-08-11T15:57:49.347Z,75.04
2022-08-11T16:00:35.754Z,74.89
2022-08-11T16:03:23.336Z,75.12
2022-08-11T16:05:53.308Z,74.91
2022-08-11T16:08:30.298Z,75.16
2022-08-11T16:11:00.419Z,75.33
2022-08-11T16:13:28.911Z,75.50
2022-08-11T16:16:16.042Z,75.80
2022-08-11T16:18:51.724Z,75.83
2022-08-11T16:21:35.199Z,76.21
2022-08-11T16:27:01.821Z,76.62
2022-08-11T16:27:13.081Z,76.98
2022-08-11T16:29:45.590Z,77.56
2022-08-11T16:32:17.334Z,77.92
2022-08-11T16:35:21.433Z,78.24
2022-08-11T16:38:07.738Z,78.20
2022-08-11T16:40:35.706Z,78.53
2022-08-11T16:43:26.224Z,78.75
2022-08-11T16:46:13.611Z,78.95
2022-08-11T16:48:46.127Z,79.17
2022-08-11T16:51:13.851Z,79.33
2022-08-11T16:53:47.383Z,79.56
2022-08-11T16:56:54.230Z,79.64
2022-08-11T16:59:27.185Z,79.66
2022-08-11T17:01:58.114Z,80.04
2022-08-11T17:04:50.230Z,80.28
2022-08-11T17:07:42.231Z,80.25
2022-08-11T17:10:52.918Z,80.33
2022-08-11T17:13:35.617Z,80.35
2022-08-11T17:16:07.717Z,80.43
2022-08-11T17:18:46.782Z,80.70
2022-08-11T17:21:18.645Z,80.72
2022-08-11T17:23:55.091Z,80.90
2022-08-11T17:26:59.716Z,81.00
2022-08-11T17:29:54.955Z,81.05
2022-08-11T17:32:57.321Z,81.01
2022-08-11T17:35:33.595Z,80.83
2022-08-11T17:38:06.056Z,80.75
2022-08-11T17:40:38.798Z,80.62
2022-08-11T17:43:29.347Z,80.47
2022-08-11T17:46:16.513Z,80.29
2022-08-11T17:48:47.586Z,80.23
2022-08-11T17:51:38.763Z,80.22
2022-08-11T17:54:26.218Z,80.27
2022-08-11T17:57:20.466Z,80.26
2022-08-11T17:59:53.675Z,80.40
2022-08-11T18:02:49.759Z,80.38
2022-08-11T18:05:20.119Z,80.47
2022-08-11T18:08:09.299Z,80.61
2022-08-11T18:10:56.597Z,80.90
2022-08-11T18:13:43.915Z,80.93
2022-08-11T18:16:29.935Z,81.06
2022-08-11T18:19:15.538Z,81.16
2022-08-11T18:22:14.261Z,81.25
2022-08-11T18:25:09.067Z,81.30
2022-08-11T18:27:59.247Z,81.48
2022-08-11T18:30:46.216Z,81.76
2022-08-11T18:34:03.399Z,81.70
2022-08-11T18:36:42.805Z,81.88
2022-08-11T18:39:30.673Z,81.77
2022-08-11T18:42:29.130Z,81.75
2022-08-11T18:45:29.819Z,81.75
2022-08-11T18:48:23.333Z,81.73
2022-08-11T18:51:30.958Z,81.93
2022-08-11T18:54:26.002Z,82.18
2022-08-11T18:57:13.094Z,82.51
2022-08-11T19:00:02.398Z,82.86
2022-08-11T19:02:51.431Z,83.25
2022-08-11T19:06:05.946Z,83.59
2022-08-11T19:08:56.016Z,83.77
2022-08-11T19:11:43.925Z,83.79
2022-08-11T19:14:32.059Z,84.12
2022-08-11T19:17:44.854Z,84.40
2022-08-11T19:20:41.072Z,84.74
2022-08-11T19:23:29.887Z,84.79
2022-08-11T19:26:17.344Z,84.94
2022-08-11T19:29:06.331Z,85.23
2022-08-11T19:31:54.293Z,85.26
2022-08-11T19:34:42.732Z,85.43
2022-08-11T19:37:30.380Z,85.40
2022-08-11T19:40:20.180Z,84.76
2022-08-11T19:43:11.236Z,84.32
2022-08-11T19:46:11.397Z,84.23
2022-08-11T19:48:58.386Z,83.56
2022-08-11T19:51:44.242Z,83.44
2022-08-11T19:54:31.435Z,83.39
2022-08-11T19:57:18.203Z,83.23
2022-08-11T20:00:05.123Z,83.14
2022-08-11T20:02:50.529Z,82.97
2022-08-11T20:05:35.955Z,82.64
2022-08-11T20:08:22.976Z,82.52
2022-08-11T20:11:10.908Z,82.22
2022-08-11T20:14:01.789Z,82.30
2022-08-11T20:16:48.803Z,82.26
2022-08-11T20:19:55.357Z,82.29
2022-08-11T20:22:45.515Z,82.33
2022-08-11T20:25:32.933Z,82.20
2022-08-11T20:28:19.421Z,82.33
2022-08-11T20:31:05.503Z,82.29
2022-08-11T20:33:52.225Z,82.38
2022-08-11T20:36:37.932Z,82.38
2022-08-11T20:39:24.681Z,82.21
2022-08-11T20:42:12.542Z,82.17
2022-08-11T20:44:59.087Z,82.15
2022-08-11T20:47:56.223Z,82.07
2022-08-11T20:50:46.432Z,81.93
2022-08-11T20:53:36.117Z,81.74
2022-08-11T21:02:40.790Z,81.54
2022-08-11T21:06:09.242Z,81.51
2022-08-11T21:08:39.003Z,81.50
2022-08-11T21:11:28.943Z,81.43
2022-08-11T21:14:16.593Z,81.37
2022-08-11T21:17:26.933Z,81.63
2022-08-11T21:20:20.640Z,81.76
2022-08-11T21:23:13.100Z,81.81
2022-08-11T21:26:26.143Z,81.89
2022-08-11T21:29:14.669Z,81.85
2022-08-11T21:32:01.194Z,82.02
2022-08-11T21:34:49.754Z,82.03
2022-08-11T21:37:36.837Z,82.16
2022-08-11T21:40:25.836Z,82.29
2022-08-11T21:43:12.704Z,82.30
2022-08-11T21:45:59.679Z,82.44
2022-08-11T21:48:46.629Z,82.52
2022-08-11T21:51:32.571Z,82.56
2022-08-11T21:54:19.816Z,82.64
2022-08-11T21:57:06.758Z,82.79
2022-08-11T22:00:10.491Z,82.79
2022-08-11T22:03:00.960Z,82.87
2022-08-11T22:05:51.505Z,82.90
2022-08-11T22:08:37.473Z,83.00
2022-08-11T22:11:32.254Z,83.06
2022-08-11T22:14:21.620Z,83.10
2022-08-11T22:17:06.961Z,83.27
2022-08-11T22:19:55.068Z,83.24
2022-08-11T22:22:52.425Z,83.27
2022-08-11T22:25:51.618Z,83.42
2022-08-11T22:28:40.004Z,83.51
2022-08-11T22:31:26.903Z,83.54
2022-08-11T22:34:12.936Z,83.69
2022-08-11T22:37:00.296Z,83.81
2022-08-11T22:40:00.031Z,83.91
2022-08-11T22:42:49.795Z,83.96
2022-08-11T22:45:35.674Z,84.05
2022-08-11T22:48:23.995Z,84.22
2022-08-11T22:51:09.868Z,84.37
2022-08-11T22:53:58.357Z,84.36
2022-08-11T22:56:48.965Z,84.63
2022-08-11T22:59:38.279Z,84.73
2022-08-11T23:02:25.542Z,84.84
2022-08-11T23:05:11.617Z,84.94
2022-08-11T23:07:59.018Z,85.01
2022-08-11T23:10:45.931Z,85.21
2022-08-11T23:13:32.116Z,85.29
2022-08-11T23:16:19.097Z,85.29
2022-08-11T23:19:05.379Z,85.43
2022-08-11T23:21:51.315Z,85.49
2022-08-11T23:24:38.737Z,85.51
2022-08-11T23:27:27.528Z,85.57
2022-08-11T23:30:17.208Z,85.58
2022-08-11T23:33:07.489Z,85.77
2022-08-11T23:35:57.903Z,85.78
2022-08-11T23:38:45.208Z,85.85
2022-08-11T23:41:33.537Z,86.03
2022-08-11T23:44:20.549Z,86.35
2022-08-11T23:47:13.405Z,86.33
2022-08-11T23:49:59.620Z,86.46
2022-08-11T23:52:46.936Z,86.65
2022-08-11T23:55:32.357Z,86.84
2022-08-11T23:58:18.409Z,86.82
